createdAt,value
2019-04-05T00:01:38.833Z,16.17
2019-04-05T00:04:42.510Z,17.80
2019-04-05T00:07:46.196Z,20.43
2019-04-05T00:10:49.915Z,13.93
2019-04-05T00:13:53.889Z,15.63
2019-04-05T00:16:57.583Z,13.20
2019-04-05T00:20:01.342Z,13.40
2019-04-05T00:23:05.102Z,14.53
2019-04-05T00:26:08.818Z,15.40
2019-04-05T00:29:12.586Z,16.60
2019-04-05T00:32:16.542Z,14.73
2019-04-05T00:35:20.277Z,17.80
2019-04-05T00:38:24.251Z,14.80
2019-04-05T00:41:27.936Z,17.15
2019-04-05T00:44:31.651Z,14.60
2019-04-05T00:47:35.295Z,14.57
2019-04-05T00:50:39.482Z,15.67
2019-04-05T00:53:43.387Z,17.50
2019-04-05T00:56:47.166Z,14.40
2019-04-05T00:59:50.934Z,19.40
2019-04-05T01:02:54.605Z,18.20
2019-04-05T01:05:58.287Z,15.23
2019-04-05T01:09:02.514Z,15.83
2019-04-05T01:12:06.898Z,16.40
2019-04-05T01:15:11.171Z,18.33
2019-04-05T01:18:14.946Z,17.03
2019-04-05T01:21:21.414Z,15.77
2019-04-05T01:24:25.338Z,19.87
2019-04-05T01:27:30.761Z,15.33
2019-04-05T01:30:34.640Z,16.13
2019-04-05T01:33:38.306Z,15.27
2019-04-05T01:36:42.046Z,16.50
2019-04-05T01:39:45.754Z,18.03
2019-04-05T01:42:49.866Z,15.60
2019-04-05T01:45:54.482Z,19.33
2019-04-05T01:48:58.287Z,15.90
2019-04-05T01:52:02.077Z,17.00
2019-04-05T01:55:06.525Z,16.50
2019-04-05T01:58:10.297Z,16.67
2019-04-05T02:01:14.101Z,19.83
2019-04-05T02:04:17.806Z,16.27
2019-04-05T02:07:21.539Z,16.17
2019-04-05T02:10:25.561Z,16.10
2019-04-05T02:13:29.509Z,17.27
2019-04-05T02:16:33.273Z,16.67
2019-04-05T02:19:36.954Z,17.33
2019-04-05T02:22:40.793Z,18.10
2019-04-05T02:25:44.610Z,22.07
2019-04-05T02:28:48.402Z,18.30
2019-04-05T02:31:52.097Z,16.50
2019-04-05T02:34:55.814Z,16.87
2019-04-05T02:37:59.535Z,18.60
2019-04-05T02:41:03.544Z,25.37
2019-04-05T02:44:10.586Z,18.23
2019-04-05T02:47:14.564Z,18.83
2019-04-05T02:50:20.709Z,21.90
2019-04-05T02:53:25.497Z,17.57
2019-04-05T02:56:30.830Z,17.80
2019-04-05T02:59:35.206Z,21.33
2019-04-05T03:02:39.830Z,22.35
2019-04-05T03:05:44.679Z,19.33
2019-04-05T03:08:48.639Z,16.73
2019-04-05T03:11:52.871Z,18.40
2019-04-05T03:14:57.290Z,19.90
2019-04-05T03:18:01.218Z,18.03
2019-04-05T03:21:07.775Z,17.63
2019-04-05T03:24:15.908Z,20.63
2019-04-05T03:27:24.272Z,16.10
2019-04-05T03:30:29.863Z,17.63
2019-04-05T03:33:33.987Z,19.40
2019-04-05T03:36:38.627Z,18.20
2019-04-05T03:39:42.875Z,17.80
2019-04-05T03:42:46.773Z,17.07
2019-04-05T03:45:50.738Z,18.53
2019-04-05T03:48:54.650Z,16.67
2019-04-05T03:51:58.529Z,17.93
2019-04-05T03:55:02.635Z,19.93
2019-04-05T03:58:06.763Z,22.80
2019-04-05T04:01:10.746Z,18.90
2019-04-05T04:04:14.533Z,19.53
2019-04-05T04:07:18.340Z,23.53
2019-04-05T04:10:22.230Z,19.27
2019-04-05T04:13:26.386Z,18.97
2019-04-05T04:16:30.414Z,18.47
2019-04-05T04:19:34.364Z,21.15
2019-04-05T04:22:38.569Z,25.50
2019-04-05T04:25:43.239Z,22.17
2019-04-05T04:28:47.279Z,18.33
2019-04-05T04:31:51.568Z,19.03
2019-04-05T04:34:55.495Z,17.10
2019-04-05T04:37:59.959Z,19.23
2019-04-05T04:41:03.770Z,19.13
2019-04-05T04:44:07.685Z,20.20
2019-04-05T04:47:25.038Z,22.97
2019-04-05T04:50:17.978Z,20.10
2019-04-05T04:53:22.318Z,23.50
2019-04-05T04:56:26.263Z,18.73
2019-04-05T04:59:30.514Z,21.93
2019-04-05T05:02:34.696Z,18.23
2019-04-05T05:05:38.639Z,21.10
2019-04-05T05:08:42.644Z,18.67
2019-04-05T05:11:46.493Z,23.70
2019-04-05T05:14:50.309Z,25.83
2019-04-05T05:17:58.825Z,23.93
2019-04-05T05:21:00.170Z,24.07
2019-04-05T05:24:04.655Z,24.50
2019-04-05T05:27:08.555Z,19.87
2019-04-05T05:30:13.001Z,20.70
2019-04-05T05:33:16.954Z,22.87
2019-04-05T05:36:20.831Z,23.47
2019-04-05T05:39:24.558Z,22.60
2019-04-05T05:42:28.652Z,22.83
2019-04-05T05:45:32.519Z,24.37
2019-04-05T05:48:36.501Z,22.10
2019-04-05T05:51:40.834Z,25.50
2019-04-05T05:54:44.541Z,23.40
2019-04-05T05:57:48.234Z,22.00
2019-04-05T06:00:51.978Z,24.53
2019-04-05T06:03:55.926Z,21.13
2019-04-05T06:06:59.761Z,19.67
2019-04-05T06:10:03.593Z,29.30
2019-04-05T06:13:07.845Z,19.98
2019-04-05T06:16:11.642Z,24.10
2019-04-05T06:19:15.398Z,29.20
2019-04-05T06:22:19.130Z,25.75
2019-04-05T06:25:22.899Z,30.40
2019-04-05T06:28:26.613Z,27.10
2019-04-05T06:31:30.688Z,26.00
2019-04-05T06:34:34.479Z,27.40
2019-04-05T06:37:38.211Z,33.17
2019-04-05T06:40:42.023Z,33.23
2019-04-05T06:43:45.689Z,39.83
2019-04-05T06:46:49.431Z,36.50
2019-04-05T06:49:53.235Z,39.07
2019-04-05T06:52:56.951Z,41.43
2019-04-05T06:56:00.737Z,46.37
2019-04-05T06:59:04.694Z,49.00
2019-04-05T07:02:08.782Z,51.23
2019-04-05T07:05:12.654Z,50.27
2019-04-05T07:08:18.328Z,50.93
2019-04-05T07:11:21.984Z,47.95
2019-04-05T07:14:25.681Z,52.67
2019-04-05T07:17:29.574Z,54.83
2019-04-05T07:20:33.440Z,59.87
2019-04-05T07:23:37.122Z,61.97
2019-04-05T07:26:40.949Z,61.67
2019-04-05T07:29:44.644Z,58.40
2019-04-05T07:32:48.945Z,64.73
2019-04-05T07:35:52.936Z,58.37
2019-04-05T07:38:56.657Z,65.50
2019-04-05T07:42:00.434Z,63.77
2019-04-05T07:45:05.150Z,63.93
2019-04-05T07:48:08.898Z,64.30
2019-04-05T07:51:12.649Z,58.03
2019-04-05T07:54:16.458Z,58.50
2019-04-05T07:57:20.317Z,63.40
2019-04-05T08:00:45.758Z,63.80
2019-04-05T08:03:49.511Z,59.70
2019-04-05T08:06:56.077Z,62.10
2019-04-05T08:10:02.882Z,62.07
2019-04-05T08:13:06.118Z,63.00
2019-04-05T08:16:09.847Z,65.27
2019-04-05T08:19:13.514Z,56.17
2019-04-05T08:22:17.298Z,63.30
2019-04-05T08:25:21.002Z,65.67
2019-04-05T08:28:24.732Z,67.87
2019-04-05T08:31:28.683Z,63.23
2019-04-05T08:34:32.337Z,66.93
2019-04-05T08:37:36.064Z,63.97
2019-04-05T08:40:39.857Z,65.13
2019-04-05T08:43:43.549Z,69.00
2019-04-05T08:46:47.245Z,69.67
2019-04-05T08:49:51.232Z,75.00
2019-04-05T08:52:55.022Z,75.93
2019-04-05T08:55:58.730Z,69.03
2019-04-05T08:59:02.559Z,70.13
2019-04-05T09:02:06.368Z,67.50
2019-04-05T09:05:10.158Z,74.57
2019-04-05T09:08:13.950Z,77.95
2019-04-05T09:11:17.662Z,75.70
2019-04-05T09:14:21.386Z,72.50
2019-04-05T09:17:25.141Z,72.30
2019-04-05T09:20:28.830Z,75.30
2019-04-05T09:23:32.619Z,84.77
2019-04-05T09:26:36.387Z,88.77
2019-04-05T09:29:40.173Z,86.87
2019-04-05T09:32:43.848Z,77.10
2019-04-05T09:35:47.559Z,83.20
2019-04-05T09:38:51.227Z,85.37
2019-04-05T09:41:54.954Z,85.83
2019-04-05T09:44:58.886Z,90.50
2019-04-05T09:48:02.644Z,97.83
2019-04-05T09:51:07.287Z,98.63
2019-04-05T09:54:11.218Z,92.30
2019-04-05T09:57:14.979Z,96.37
2019-04-05T10:00:25.314Z,96.13
2019-04-05T10:03:29.151Z,91.33
2019-04-05T10:06:32.890Z,95.97
2019-04-05T10:09:36.893Z,98.30
2019-04-05T10:12:40.722Z,94.90
2019-04-05T10:15:44.477Z,98.73
2019-04-05T10:18:48.150Z,102.17
2019-04-05T10:21:52.210Z,111.80
2019-04-05T10:24:55.884Z,107.53
2019-04-05T10:27:59.584Z,116.33
2019-04-05T10:31:03.285Z,112.57
2019-04-05T10:34:06.971Z,115.40
2019-04-05T10:37:10.715Z,122.80
2019-04-05T10:40:14.771Z,119.93
2019-04-05T10:43:18.554Z,119.07
2019-04-05T10:46:22.390Z,112.57
2019-04-05T10:49:26.082Z,117.77
2019-04-05T10:52:29.769Z,118.77
2019-04-05T10:55:33.508Z,128.00
2019-04-05T10:58:37.291Z,115.07
2019-04-05T11:01:40.998Z,121.07
2019-04-05T11:04:44.798Z,117.33
2019-04-05T11:07:49.591Z,113.47
2019-04-05T11:10:53.322Z,116.17
2019-04-05T11:13:57.118Z,115.13
2019-04-05T11:17:04.517Z,106.00
2019-04-05T11:20:20.796Z,106.47
2019-04-05T11:23:13.122Z,96.47
2019-04-05T11:26:16.873Z,86.90
2019-04-05T11:29:20.615Z,93.37
2019-04-05T11:32:24.320Z,90.10
2019-04-05T11:35:28.045Z,85.13
2019-04-05T11:38:31.922Z,71.47
2019-04-05T11:41:37.402Z,72.00
2019-04-05T11:44:42.975Z,72.43
2019-04-05T11:47:47.623Z,64.50
2019-04-05T11:50:51.318Z,65.67
2019-04-05T11:53:55.006Z,59.83
2019-04-05T11:56:58.728Z,61.90
2019-04-05T12:00:02.655Z,67.07
2019-04-05T12:03:09.779Z,64.60
2019-04-05T12:06:13.585Z,58.67
2019-04-05T12:09:17.299Z,58.90
2019-04-05T12:12:21.051Z,57.33
2019-04-05T12:15:24.785Z,61.37
2019-04-05T12:18:28.658Z,61.77
2019-04-05T12:21:32.590Z,66.40
2019-04-05T12:24:37.795Z,58.37
2019-04-05T12:27:41.698Z,66.00
2019-04-05T12:30:47.025Z,58.47
2019-04-05T12:33:52.215Z,60.27
2019-04-05T12:36:56.338Z,61.30
2019-04-05T12:40:00.058Z,57.43
2019-04-05T12:43:03.746Z,61.70
2019-04-05T12:46:07.527Z,55.50
2019-04-05T12:49:11.186Z,55.30
2019-04-05T12:52:22.693Z,60.60
2019-04-05T12:55:23.751Z,57.83
2019-04-05T12:58:26.714Z,56.83
2019-04-05T13:01:30.681Z,60.50
2019-04-05T13:04:34.687Z,55.80
2019-04-05T13:07:38.438Z,58.40
2019-04-05T13:10:42.177Z,56.60
2019-04-05T13:13:46.015Z,59.97
2019-04-05T13:16:49.781Z,63.93
2019-04-05T13:19:53.552Z,61.47
2019-04-05T13:22:57.343Z,60.17
2019-04-05T13:26:01.055Z,58.40
2019-04-05T13:29:05.043Z,56.90
2019-04-05T13:32:08.776Z,55.53
2019-04-05T13:35:12.702Z,54.87
2019-04-05T13:38:16.460Z,55.43
2019-04-05T13:41:20.362Z,56.57
2019-04-05T13:44:24.056Z,56.20
2019-04-05T13:47:27.788Z,55.12
2019-04-05T13:50:31.529Z,54.77
2019-04-05T13:53:35.247Z,54.63
2019-04-05T13:56:39.565Z,58.80
2019-04-05T13:59:44.863Z,53.47
2019-04-05T14:02:50.812Z,54.30
2019-04-05T14:05:55.411Z,56.50
2019-04-05T14:08:59.214Z,62.07
2019-04-05T14:12:03.881Z,52.37
2019-04-05T14:15:10.681Z,49.27
2019-04-05T14:18:15.331Z,55.83
2019-04-05T14:21:20.643Z,51.37
2019-04-05T14:24:24.113Z,51.40
2019-04-05T14:27:27.937Z,58.60
2019-04-05T14:30:33.642Z,47.67
2019-04-05T14:33:37.569Z,54.50
2019-04-05T14:36:41.527Z,58.17
2019-04-05T14:39:45.308Z,52.37
2019-04-05T14:42:49.119Z,58.00
2019-04-05T14:45:52.920Z,53.57
2019-04-05T14:48:58.482Z,55.67
2019-04-05T14:52:02.116Z,52.47
2019-04-05T14:55:06.386Z,54.90
2019-04-05T14:58:10.647Z,54.43
2019-04-05T15:01:15.545Z,57.63
2019-04-05T15:04:20.180Z,54.60
2019-04-05T15:07:23.894Z,58.20
2019-04-05T15:10:28.234Z,57.20
2019-04-05T15:13:31.955Z,55.37
2019-04-05T15:16:35.686Z,52.43
2019-04-05T15:19:39.378Z,50.43
2019-04-05T15:22:43.076Z,55.97
2019-04-05T15:25:49.537Z,54.05
2019-04-05T15:28:54.596Z,55.97
2019-04-05T15:31:57.767Z,59.13
2019-04-05T15:35:01.547Z,50.27
2019-04-05T15:38:05.618Z,55.23
2019-04-05T15:41:09.316Z,47.70
2019-04-05T15:44:13.203Z,57.57
2019-04-05T15:47:16.875Z,54.50
2019-04-05T15:50:22.031Z,54.08
2019-04-05T15:53:26.219Z,51.40
2019-04-05T15:56:33.301Z,53.03
2019-04-05T15:59:35.346Z,52.27
2019-04-05T16:02:39.010Z,53.60
2019-04-05T16:05:44.756Z,48.42
2019-04-05T16:08:48.623Z,56.43
2019-04-05T16:11:52.306Z,44.07
2019-04-05T16:14:56.258Z,55.12
2019-04-05T16:17:59.939Z,57.48
2019-04-05T16:21:03.661Z,60.00
2019-04-05T16:24:07.404Z,54.30
2019-04-05T16:27:11.174Z,53.75
2019-04-05T16:30:15.056Z,62.00
2019-04-05T16:33:18.884Z,57.83
2019-04-05T16:36:22.637Z,62.07
2019-04-05T16:39:26.407Z,58.70
2019-04-05T16:42:30.219Z,58.80
2019-04-05T16:45:34.174Z,53.65
2019-04-05T16:48:37.855Z,55.77
2019-04-05T16:51:41.730Z,54.20
2019-04-05T16:54:45.640Z,51.20
2019-04-05T16:57:49.682Z,51.37
2019-04-05T17:00:53.454Z,55.30
2019-04-05T17:03:57.263Z,51.13
2019-04-05T17:07:01.062Z,53.80
2019-04-05T17:10:05.743Z,58.73
2019-04-05T17:13:09.546Z,58.57
2019-04-05T17:16:13.533Z,57.20
2019-04-05T17:19:17.516Z,57.43
2019-04-05T17:22:21.506Z,53.83
2019-04-05T17:25:25.492Z,54.47
2019-04-05T17:28:29.196Z,58.23
2019-04-05T17:31:33.090Z,59.90
2019-04-05T17:34:36.908Z,56.70
2019-04-05T17:37:40.643Z,61.33
2019-04-05T17:40:44.503Z,62.70
2019-04-05T17:43:48.245Z,54.03
2019-04-05T17:46:51.997Z,52.53
2019-04-05T17:49:55.706Z,57.97
2019-04-05T17:53:11.465Z,48.37
2019-04-05T17:56:05.230Z,55.23
2019-04-05T17:59:09.762Z,55.07
2019-04-05T18:02:13.636Z,56.63
2019-04-05T18:05:17.682Z,63.63
2019-04-05T18:08:21.410Z,56.30
2019-04-05T18:11:25.147Z,57.93
2019-04-05T18:14:28.874Z,60.33
2019-04-05T18:17:32.721Z,54.53
2019-04-05T18:20:36.447Z,56.40
2019-04-05T18:23:40.166Z,58.30
2019-04-05T18:26:43.927Z,57.53
2019-04-05T18:29:47.730Z,51.60
2019-04-05T18:32:51.644Z,60.90
2019-04-05T18:35:55.359Z,58.00
2019-04-05T18:38:59.229Z,58.83
2019-04-05T18:42:03.032Z,54.77
2019-04-05T18:45:07.534Z,57.87
2019-04-05T18:48:11.603Z,52.65
2019-04-05T18:51:15.387Z,52.77
2019-04-05T18:54:19.144Z,50.03
2019-04-05T18:57:23.121Z,63.70
2019-04-05T19:00:27.509Z,59.42
2019-04-05T19:03:31.371Z,58.70
2019-04-05T19:06:35.178Z,61.30
2019-04-05T19:09:39.091Z,51.00
2019-04-05T19:12:42.874Z,50.27
2019-04-05T19:15:46.778Z,53.63
2019-04-05T19:18:50.817Z,56.97
2019-04-05T19:21:55.258Z,64.23
2019-04-05T19:24:58.970Z,58.27
2019-04-05T19:28:02.801Z,58.73
2019-04-05T19:49:41.737Z,57.97
2019-04-05T19:52:45.474Z,57.07
2019-04-05T19:55:49.175Z,57.27
2019-04-05T19:58:53.134Z,53.00
2019-04-05T20:01:56.847Z,62.00
2019-04-05T20:05:00.576Z,56.83
2019-04-05T20:08:04.418Z,56.83
2019-04-05T20:11:08.372Z,54.27
2019-04-05T20:14:12.031Z,56.20
2019-04-05T20:17:15.807Z,60.27
2019-04-05T20:20:19.743Z,57.70
2019-04-05T20:23:23.541Z,50.67
2019-04-05T20:26:27.334Z,52.83
2019-04-05T20:29:31.071Z,53.87
2019-04-05T20:32:34.918Z,52.20
2019-04-05T20:35:38.643Z,51.23
2019-04-05T20:38:42.378Z,58.77
2019-04-05T20:41:46.042Z,53.83
2019-04-05T20:44:49.810Z,55.90
2019-04-05T20:47:53.522Z,58.07
2019-04-05T20:50:57.239Z,51.13
2019-04-05T20:54:00.946Z,53.03
2019-04-05T20:57:04.891Z,49.67
2019-04-05T21:00:12.010Z,47.17
2019-04-05T21:03:15.667Z,49.67
2019-04-05T21:06:19.357Z,57.37
2019-04-05T21:09:23.058Z,50.57
2019-04-05T21:12:26.967Z,55.85
2019-04-05T21:15:30.690Z,50.73
2019-04-05T21:18:34.413Z,53.10
2019-04-05T21:21:38.159Z,48.20
2019-04-05T21:24:41.825Z,56.47
2019-04-05T21:27:46.681Z,47.78
2019-04-05T21:30:50.390Z,53.97
2019-04-05T21:33:54.091Z,48.00
2019-04-05T21:36:58.169Z,53.23
2019-04-05T21:40:01.930Z,52.47
2019-04-05T21:43:05.690Z,52.60
2019-04-05T21:46:09.402Z,51.63
2019-04-05T21:49:13.322Z,46.20
2019-04-05T21:52:17.042Z,59.10
2019-04-05T21:55:20.895Z,47.77
2019-04-05T21:58:25.939Z,47.50
2019-04-05T22:01:29.923Z,46.67
2019-04-05T22:04:33.611Z,53.60
2019-04-05T22:07:37.319Z,58.20
2019-04-05T22:10:41.033Z,50.95
2019-04-05T22:13:45.110Z,56.45
2019-04-05T22:16:48.812Z,54.97
2019-04-05T22:19:52.602Z,57.33
2019-04-05T22:22:56.281Z,53.80
2019-04-05T22:25:59.989Z,47.83
2019-04-05T22:29:03.771Z,51.77
2019-04-05T22:32:07.533Z,47.00
2019-04-05T22:35:11.310Z,46.63
2019-04-05T22:38:15.104Z,55.60
2019-04-05T22:41:18.849Z,48.13
2019-04-05T22:44:22.505Z,47.57
2019-04-05T22:47:26.337Z,46.88
2019-04-05T22:50:30.173Z,43.80
2019-04-05T22:53:34.086Z,49.97
2019-04-05T22:56:37.794Z,41.93
2019-04-05T22:59:41.469Z,44.80
2019-04-05T23:02:45.196Z,46.07
2019-04-05T23:05:49.006Z,49.77
2019-04-05T23:08:52.982Z,47.07
2019-04-05T23:11:57.114Z,48.42
2019-04-05T23:15:00.990Z,48.03
2019-04-05T23:18:04.790Z,48.03
2019-04-05T23:21:08.746Z,53.00
2019-04-05T23:24:12.451Z,46.63
2019-04-05T23:27:16.183Z,49.73
2019-04-05T23:30:21.437Z,52.97
2019-04-05T23:33:25.575Z,48.60
2019-04-05T23:36:29.278Z,47.13
2019-04-05T23:39:32.962Z,45.48
2019-04-05T23:42:36.666Z,46.83
2019-04-05T23:45:40.344Z,47.27
2019-04-05T23:48:44.022Z,45.83
2019-04-05T23:51:47.706Z,49.20
2019-04-05T23:54:51.416Z,45.57
2019-04-05T23:57:55.138Z,51.83
